Time;durP1;ratioP1;P1;durP2;ratioP2;P2;SDS_P1;SDS_P2;PMS_P1;PMS_P2;Temp;Humidity;BMP_temperature;BMP_pressure;BME280_temperature;BME280_humidity;BME280_pressure;Samples;Min_cycle;Max_cycle;Signal;HPM_P1;HPM_P2
2021/04/11 00:00:42;;;;;;;11.50;2.55;;;5.20;99.90;;;;;;5014136;28;20664;-87
2021/04/11 00:03:11;;;;;;;9.18;2.15;;;5.10;99.90;;;;;;5014326;28;20479;-87
2021/04/11 00:05:39;;;;;;;8.32;1.95;;;5.10;99.90;;;;;;5013815;28;20025;-87
2021/04/11 00:08:07;;;;;;;14.13;2.47;;;5.10;99.90;;;;;;5014137;28;20479;-86
2021/04/11 00:10:35;;;;;;;10.93;3.08;;;5.10;99.90;;;;;;5012799;28;20507;-87
2021/04/11 00:13:03;;;;;;;8.98;2.20;;;5.10;99.90;;;;;;5012876;28;20022;-87
2021/04/11 00:15:30;;;;;;;9.88;2.10;;;5.10;99.90;;;;;;5012222;28;20129;-88
2021/04/11 00:17:55;;;;;;;8.63;2.25;;;5.10;99.90;;;;;;5014112;28;20030;-86
2021/04/11 00:20:21;;;;;;;21.15;2.47;;;5.00;99.90;;;;;;5029228;28;20479;-86
2021/04/11 00:22:46;;;;;;;6.38;1.52;;;5.00;99.90;;;;;;5012669;28;20084;-86
2021/04/11 00:25:16;;;;;;;9.32;2.08;;;5.00;99.90;;;;;;5013354;28;20026;-86
2021/04/11 00:27:43;;;;;;;6.03;1.67;;;4.90;99.90;;;;;;5014299;28;20080;-88
2021/04/11 00:30:10;;;;;;;10.20;1.90;;;4.90;99.90;;;;;;5013257;28;20033;-88
2021/04/11 00:32:36;;;;;;;9.13;1.83;;;4.90;99.90;;;;;;5014433;28;20029;-88
2021/04/11 00:35:01;;;;;;;6.53;1.58;;;4.80;99.90;;;;;;5012146;28;20410;-88
2021/04/11 00:37:27;;;;;;;11.05;1.98;;;4.80;99.90;;;;;;5014224;28;20100;-89
2021/04/11 00:39:52;;;;;;;4.80;1.52;;;4.80;99.90;;;;;;5014440;28;20033;-88
2021/04/11 00:42:34;;;;;;;10.77;3.72;;;4.80;99.90;;;;;;5014267;28;20034;-89
2021/04/11 00:45:38;;;;;;;11.15;2.00;;;4.70;99.90;;;;;;5013553;28;20022;-87
2021/04/11 00:48:04;;;;;;;19.63;1.90;;;4.60;99.90;;;;;;5022883;28;20030;-90
2021/04/11 00:50:29;;;;;;;5.60;1.35;;;4.60;99.90;;;;;;5012936;28;20142;-88
2021/04/11 00:52:56;;;;;;;11.02;2.00;;;4.60;99.90;;;;;;5013923;28;20502;-88
2021/04/11 00:55:23;;;;;;;8.48;1.73;;;4.60;99.90;;;;;;5012109;28;20022;-88
2021/04/11 00:57:50;;;;;;;13.82;2.13;;;4.50;99.90;;;;;;5013016;28;20026;-89
2021/04/11 01:00:17;;;;;;;4.80;1.60;;;4.50;99.90;;;;;;5014016;28;20021;-88
2021/04/11 01:02:43;;;;;;;7.47;2.40;;;4.40;99.90;;;;;;5014028;28;20447;-90
2021/04/11 01:05:16;;;;;;;7.85;1.95;;;4.30;99.90;;;;;;5013452;28;20050;-89
2021/04/11 01:07:45;;;;;;;7.30;2.35;;;4.30;99.90;;;;;;5014121;28;20030;-89
2021/04/11 01:10:13;;;;;;;9.00;2.35;;;4.20;99.90;;;;;;5012786;28;20521;-87
2021/04/11 01:12:39;;;;;;;11.35;2.20;;;4.20;99.90;;;;;;5012724;28;20030;-87
2021/04/11 01:15:13;;;;;;;8.05;1.83;;;4.10;99.90;;;;;;5011765;28;20036;-88
2021/04/11 01:17:39;;;;;;;11.48;2.55;;;4.10;99.90;;;;;;5012544;28;20022;-88
2021/04/11 01:20:07;;;;;;;12.38;3.08;;;4.00;99.90;;;;;;5012538;28;20057;-90
2021/04/11 01:22:39;;;;;;;10.13;2.25;;;3.90;99.90;;;;;;5013519;28;20032;-88
2021/04/11 01:25:11;;;;;;;11.57;2.50;;;3.80;99.90;;;;;;5011854;28;20022;-88
2021/04/11 01:27:37;;;;;;;9.07;2.35;;;3.70;99.90;;;;;;5012134;28;20478;-89
2021/04/11 01:30:31;;;;;;;16.70;3.80;;;3.60;99.90;;;;;;5013068;28;20110;-86
2021/04/11 01:32:57;;;;;;;12.70;2.60;;;3.50;99.90;;;;;;5011658;28;20021;-88
2021/04/11 01:35:25;;;;;;;12.15;3.50;;;3.50;99.90;;;;;;5012304;28;20764;-89
2021/04/11 01:37:53;;;;;;;12.15;2.72;;;3.40;99.90;;;;;;5013001;28;20046;-88
2021/04/11 01:40:26;;;;;;;10.40;3.10;;;3.30;99.90;;;;;;5011690;28;20049;-88
2021/04/11 01:42:52;;;;;;;10.38;3.65;;;3.20;99.90;;;;;;5011580;28;20026;-87
2021/04/11 01:45:18;;;;;;;13.90;3.13;;;3.10;99.90;;;;;;5011915;28;20032;-87
2021/04/11 01:47:44;;;;;;;21.90;3.50;;;3.00;99.90;;;;;;5012671;28;20097;-86
2021/04/11 01:50:11;;;;;;;12.88;3.63;;;3.00;99.90;;;;;;5011380;28;20116;-88
2021/04/11 01:52:38;;;;;;;26.02;5.30;;;2.90;99.90;;;;;;5012478;28;20099;-88
2021/04/11 01:55:05;;;;;;;19.13;4.88;;;2.90;99.90;;;;;;5011712;28;20114;-87
2021/04/11 01:57:33;;;;;;;15.10;5.30;;;2.80;99.90;;;;;;5011092;28;20112;-88
2021/04/11 02:00:07;;;;;;;6.60;3.10;;;2.80;99.90;;;;;;5011080;28;20032;-89
2021/04/11 02:02:33;;;;;;;14.27;4.47;;;2.80;99.90;;;;;;5012288;28;20026;-87
2021/04/11 02:04:59;;;;;;;16.92;5.30;;;2.80;99.90;;;;;;5010645;28;20022;-88
2021/04/11 02:07:25;;;;;;;14.82;5.70;;;2.70;99.90;;;;;;5012089;28;20018;-87
2021/04/11 02:09:51;;;;;;;15.18;6.22;;;2.60;99.90;;;;;;5012162;28;20446;-88
2021/04/11 02:12:17;;;;;;;16.77;5.07;;;2.60;99.90;;;;;;5010823;28;20030;-86
2021/04/11 02:14:44;;;;;;;16.35;4.88;;;2.60;99.90;;;;;;5010457;28;20029;-87
2021/04/11 02:17:11;;;;;;;18.52;6.28;;;2.60;99.90;;;;;;5010932;28;20057;-85
2021/04/11 02:19:37;;;;;;;17.50;6.32;;;2.50;99.90;;;;;;5010394;28;20117;-87
2021/04/11 02:22:13;;;;;;;20.67;6.25;;;2.40;99.90;;;;;;5011214;28;20160;-87
2021/04/11 02:24:40;;;;;;;22.85;6.10;;;2.40;99.90;;;;;;5011117;28;20038;-86
2021/04/11 02:27:07;;;;;;;14.77;5.45;;;2.30;99.90;;;;;;5011857;28;20093;-87
2021/04/11 02:29:33;;;;;;;13.88;5.20;;;2.30;99.90;;;;;;5010264;28;20033;-85
2021/04/11 02:31:59;;;;;;;17.75;6.60;;;2.20;99.90;;;;;;5010546;28;20089;-86
2021/04/11 02:34:33;;;;;;;14.50;5.07;;;2.20;99.90;;;;;;5011012;28;20101;-85
2021/04/11 02:37:27;;;;;;;13.73;4.85;;;2.20;99.90;;;;;;5010151;28;20023;-86
2021/04/11 02:39:57;;;;;;;11.32;4.53;;;2.10;99.90;;;;;;5011571;28;20034;-86
2021/04/11 02:42:27;;;;;;;10.45;4.65;;;2.00;99.90;;;;;;5010430;28;20401;-86
2021/04/11 02:44:55;;;;;;;11.38;4.70;;;2.00;99.90;;;;;;5011024;28;20026;-85
2021/04/11 02:47:21;;;;;;;19.90;5.20;;;2.00;99.90;;;;;;5011716;28;20389;-87
2021/04/11 02:49:51;;;;;;;19.25;6.13;;;1.90;99.90;;;;;;5011590;28;20101;-87
2021/04/11 02:52:37;;;;;;;13.57;4.55;;;1.90;99.90;;;;;;5010231;28;20064;-87
2021/04/11 02:55:04;;;;;;;11.35;4.43;;;1.80;99.90;;;;;;5009830;28;20081;-87
2021/04/11 02:57:30;;;;;;;12.90;3.90;;;1.80;99.90;;;;;;5025265;28;20037;-85
2021/04/11 02:59:55;;;;;;;11.90;4.18;;;1.70;99.90;;;;;;4990792;28;20121;-87
2021/04/11 03:02:23;;;;;;;16.25;4.63;;;1.60;99.90;;;;;;4990818;28;20035;-88
2021/04/11 03:04:53;;;;;;;10.23;3.58;;;1.50;99.90;;;;;;4991370;28;20498;-86
2021/04/11 03:07:26;;;;;;;14.65;3.40;;;1.50;99.90;;;;;;4991244;28;20054;-88
2021/04/11 03:10:09;;;;;;;8.68;3.70;;;1.40;99.90;;;;;;4990745;28;20533;-86
2021/04/11 03:12:36;;;;;;;9.07;3.25;;;1.30;99.90;;;;;;4992011;28;20031;-87
2021/04/11 03:15:04;;;;;;;13.95;4.38;;;1.30;99.90;;;;;;4991238;28;20026;-87
2021/04/11 03:17:30;;;;;;;10.90;3.38;;;1.20;99.90;;;;;;4990651;28;20022;-87
2021/04/11 03:20:00;;;;;;;11.00;3.22;;;1.20;99.90;;;;;;4992074;28;20030;-86
2021/04/11 03:22:27;;;;;;;7.93;3.30;;;1.20;99.90;;;;;;4991907;28;20026;-86
2021/04/11 03:24:53;;;;;;;11.20;3.30;;;1.20;99.90;;;;;;4989993;28;20073;-87
2021/04/11 03:27:44;;;;;;;10.05;3.20;;;1.20;99.90;;;;;;4990707;28;20475;-87
2021/04/11 03:30:25;;;;;;;9.05;2.80;;;1.20;99.90;;;;;;4992809;28;20027;-88
2021/04/11 03:32:53;;;;;;;5.38;2.92;;;1.10;99.90;;;;;;4995225;28;20022;-85
2021/04/11 03:35:23;;;;;;;9.40;3.38;;;1.10;99.90;;;;;;4993410;28;20027;-85
2021/04/11 03:37:50;;;;;;;11.68;3.78;;;1.10;99.90;;;;;;4995152;28;20150;-85
2021/04/11 03:40:21;;;;;;;10.20;3.75;;;1.10;99.90;;;;;;4994062;28;20113;-85
2021/04/11 03:42:50;;;;;;;10.57;3.10;;;1.10;99.90;;;;;;4993844;28;20027;-85
2021/04/11 03:45:17;;;;;;;12.88;3.60;;;1.10;99.90;;;;;;4994302;28;20060;-86
2021/04/11 03:47:45;;;;;;;13.63;3.40;;;1.10;99.90;;;;;;4994947;28;20129;-84
2021/04/11 03:50:23;;;;;;;7.50;3.80;;;1.10;99.90;;;;;;4993657;28;20030;-85
2021/04/11 03:53:14;;;;;;;7.03;3.00;;;1.10;99.90;;;;;;4994879;28;20030;-85
2021/04/11 03:55:43;;;;;;;7.43;2.80;;;1.10;99.90;;;;;;4992853;28;20026;-85
2021/04/11 03:58:31;;;;;;;8.43;3.58;;;1.10;99.90;;;;;;4994504;28;20031;-85
2021/04/11 04:01:07;;;;;;;6.95;3.22;;;1.10;99.90;;;;;;4994760;28;20102;-85
2021/04/11 04:03:35;;;;;;;8.18;2.40;;;1.10;99.90;;;;;;4994549;28;20027;-84
2021/04/11 04:06:18;;;;;;;7.05;3.10;;;1.10;99.90;;;;;;4994115;28;20022;-85
2021/04/11 04:08:44;;;;;;;8.25;3.40;;;1.10;99.90;;;;;;4994519;28;20030;-84
2021/04/11 04:11:18;;;;;;;7.82;3.55;;;1.10;99.90;;;;;;5009639;28;20036;-83
2021/04/11 04:14:22;;;;;;;6.60;3.30;;;1.10;99.90;;;;;;5008922;28;20052;-84
2021/04/11 04:17:02;;;;;;;10.70;3.60;;;1.10;99.90;;;;;;5003455;28;20034;-83
2021/04/11 04:19:42;;;;;;;8.30;3.95;;;1.10;99.90;;;;;;5009534;28;20092;-84
2021/04/11 04:22:37;;;;;;;8.23;3.33;;;1.20;99.90;;;;;;5009322;28;20491;-84
2021/04/11 04:25:12;;;;;;;9.43;3.38;;;1.20;99.90;;;;;;4993555;28;20077;-85
2021/04/11 04:28:02;;;;;;;7.05;3.40;;;1.10;99.90;;;;;;5009429;28;20065;-84
2021/04/11 04:30:51;;;;;;;7.78;2.85;;;1.20;99.90;;;;;;4994445;28;20372;-87
2021/04/11 04:33:25;;;;;;;9.90;3.38;;;1.20;99.90;;;;;;4999059;28;20037;-85
2021/04/11 04:36:07;;;;;;;6.22;3.40;;;1.20;99.90;;;;;;4993609;28;20395;-85
2021/04/11 04:38:40;;;;;;;7.13;3.80;;;1.20;99.90;;;;;;5009239;28;20046;-86
2021/04/11 04:41:26;;;;;;;;;;;1.20;99.90;;;;;;5009134;28;20080;-85
2021/04/11 04:43:59;;;;;;;12.35;3.38;;;1.20;99.90;;;;;;4993414;28;19928;-87
2021/04/11 04:46:44;;;;;;;6.47;3.53;;;1.20;99.90;;;;;;4993918;28;20030;-85
2021/04/11 04:49:20;;;;;;;8.43;3.88;;;1.20;99.90;;;;;;4993922;28;20093;-85
2021/04/11 04:52:16;;;;;;;7.65;3.40;;;1.20;99.90;;;;;;4993765;28;20072;-85
2021/04/11 04:54:50;;;;;;;13.48;3.88;;;1.20;99.90;;;;;;4993215;28;20026;-84
2021/04/11 04:57:44;;;;;;;11.88;3.58;;;1.20;99.90;;;;;;4993732;28;20034;-85
2021/04/11 05:00:29;;;;;;;7.50;4.03;;;1.20;99.90;;;;;;4993193;28;20058;-83
2021/04/11 05:02:54;;;;;;;8.63;4.18;;;1.20;99.90;;;;;;5008793;28;20053;-86
2021/04/11 05:05:21;;;;;;;15.80;4.05;;;1.20;99.90;;;;;;4991570;28;20479;-86
2021/04/11 05:07:53;;;;;;;12.10;3.95;;;1.10;99.90;;;;;;4993485;28;20031;-87
2021/04/11 05:10:24;;;;;;;12.57;3.75;;;1.20;99.90;;;;;;5008409;28;20065;-86
2021/04/11 05:13:02;;;;;;;10.90;4.97;;;1.20;99.90;;;;;;4993412;28;20446;-86
2021/04/11 05:15:39;;;;;;;12.25;4.65;;;1.20;99.90;;;;;;5007763;28;20085;-85
2021/04/11 05:18:11;;;;;;;10.55;4.20;;;1.30;99.90;;;;;;5008411;28;20491;-84
2021/04/11 05:20:41;;;;;;;11.73;5.22;;;1.30;99.90;;;;;;4994867;28;20030;-85
2021/04/11 05:23:19;;;;;;;11.80;5.00;;;1.30;99.90;;;;;;5012561;28;20049;-84
2021/04/11 05:25:47;;;;;;;13.60;5.38;;;1.30;99.90;;;;;;5010731;28;20028;-86
2021/04/11 05:28:23;;;;;;;10.00;5.65;;;1.30;99.90;;;;;;5012657;28;20029;-86
2021/04/11 05:31:00;;;;;;;17.25;5.30;;;1.40;99.90;;;;;;5012674;28;20029;-84
2021/04/11 05:33:26;;;;;;;8.13;4.30;;;1.30;99.90;;;;;;5011190;28;20026;-86
2021/04/11 05:36:03;;;;;;;17.70;5.28;;;1.30;99.90;;;;;;5010723;28;20029;-86
2021/04/11 05:38:46;;;;;;;10.98;5.18;;;1.30;99.90;;;;;;5012469;28;20026;-84
2021/04/11 05:41:17;;;;;;;7.20;4.32;;;1.30;99.90;;;;;;5011216;28;20029;-86
2021/04/11 05:43:59;;;;;;;8.60;5.03;;;1.30;99.90;;;;;;5026920;28;20026;-84
2021/04/11 05:46:35;;;;;;;7.72;4.50;;;1.30;99.90;;;;;;5012440;28;20105;-86
2021/04/11 05:49:16;;;;;;;10.30;4.82;;;1.30;99.90;;;;;;5011269;28;20026;-85
2021/04/11 05:51:50;;;;;;;6.22;4.60;;;1.30;99.90;;;;;;5011184;28;20494;-85
2021/04/11 05:54:20;;;;;;;8.02;4.25;;;1.30;99.90;;;;;;5010918;28;20030;-85
2021/04/11 05:56:55;;;;;;;9.85;3.75;;;1.30;99.90;;;;;;5012284;28;20022;-85
2021/04/11 05:59:34;;;;;;;4.70;3.42;;;1.30;99.90;;;;;;4995928;28;20028;-85
2021/04/11 06:02:02;;;;;;;6.80;3.38;;;1.30;99.90;;;;;;4992750;28;20498;-85
2021/04/11 06:04:43;;;;;;;4.82;3.00;;;1.30;99.90;;;;;;4991908;28;20061;-86
2021/04/11 06:07:23;;;;;;;9.02;3.33;;;1.30;99.90;;;;;;4992503;28;20680;-85
2021/04/11 06:10:44;;;;;;;9.60;3.55;;;1.30;99.90;;;;;;4992457;28;20034;-85
2021/04/11 06:13:42;;;;;;;8.20;2.95;;;1.20;99.90;;;;;;5009561;28;20030;-86
2021/04/11 06:16:16;;;;;;;4.82;2.38;;;1.20;99.90;;;;;;4948797;28;20050;-85
2021/04/11 06:18:45;;;;;;;5.47;2.60;;;1.20;99.90;;;;;;4992324;28;20022;-86
2021/04/11 06:21:48;;;;;;;4.95;2.35;;;1.20;99.90;;;;;;4991170;28;20042;-86
2021/04/11 06:24:32;;;;;;;5.75;2.00;;;1.20;99.90;;;;;;4990367;28;20029;-85
2021/04/11 06:27:12;;;;;;;3.63;2.22;;;1.20;99.90;;;;;;4992251;28;20391;-84
2021/04/11 06:30:05;;;;;;;12.82;2.60;;;1.20;99.90;;;;;;4992158;28;20543;-85
2021/04/11 06:32:38;;;;;;;4.38;2.20;;;1.20;99.90;;;;;;4992245;28;20202;-84
2021/04/11 06:35:08;;;;;;;5.15;2.67;;;1.20;99.90;;;;;;4991494;28;20088;-86
2021/04/11 06:37:38;;;;;;;4.50;2.13;;;1.30;99.90;;;;;;4992095;28;20030;-86
2021/04/11 06:40:16;;;;;;;7.05;2.40;;;1.20;99.90;;;;;;4992066;28;20113;-85
2021/04/11 06:43:04;;;;;;;6.32;2.22;;;1.30;99.90;;;;;;4992152;28;20109;-86
2021/04/11 06:45:41;;;;;;;5.63;2.55;;;1.30;99.90;;;;;;4991521;28;20451;-85
2021/04/11 06:48:36;;;;;;;8.50;2.70;;;1.30;99.90;;;;;;4990889;28;20072;-86
2021/04/11 06:51:23;;;;;;;7.30;2.65;;;1.30;99.90;;;;;;4990802;28;20037;-85
2021/04/11 06:54:36;;;;;;;4.90;2.30;;;1.30;99.90;;;;;;4990071;28;20033;-85
2021/04/11 06:57:02;;;;;;;8.95;2.83;;;1.40;99.90;;;;;;4989835;28;20034;-84
2021/04/11 07:00:08;;;;;;;3.75;2.15;;;1.50;99.90;;;;;;5007780;28;20030;-83
2021/04/11 07:03:22;;;;;;;5.32;2.15;;;1.40;99.90;;;;;;4992644;28;20049;-85
2021/04/11 07:06:00;;;;;;;3.77;2.10;;;1.50;99.90;;;;;;4994583;28;20042;-84
2021/04/11 07:08:25;;;;;;;3.97;2.03;;;1.50;99.90;;;;;;4995455;28;20102;-85
2021/04/11 07:11:19;;;;;;;3.78;1.90;;;1.50;99.90;;;;;;4994183;28;20113;-83
2021/04/11 07:14:12;;;;;;;4.47;1.87;;;1.50;99.90;;;;;;4994755;28;20109;-84
2021/04/11 07:16:59;;;;;;;3.67;1.73;;;1.50;99.90;;;;;;4994221;28;20030;-83
2021/04/11 07:20:01;;;;;;;6.85;1.85;;;1.50;99.90;;;;;;4995376;28;20054;-83
2021/04/11 07:22:45;;;;;;;7.30;2.60;;;1.60;99.90;;;;;;4995230;28;20026;-83
2021/04/11 07:25:28;;;;;;;7.40;1.90;;;1.70;99.90;;;;;;4993427;28;20030;-83
2021/04/11 07:28:03;;;;;;;4.75;2.35;;;1.70;99.90;;;;;;4993873;28;20023;-83
2021/04/11 07:30:37;;;;;;;5.97;1.83;;;1.80;99.90;;;;;;4993972;28;20034;-84
2021/04/11 07:33:19;;;;;;;5.43;1.92;;;1.80;99.90;;;;;;4993766;28;20118;-83
2021/04/11 07:36:06;;;;;;;8.60;2.42;;;1.80;99.90;;;;;;4994127;28;20076;-87
2021/04/11 07:38:57;;;;;;;3.22;2.53;;;1.90;99.90;;;;;;5012546;28;20049;-86
2021/04/11 07:41:43;;;;;;;7.03;2.58;;;1.90;99.90;;;;;;5025493;28;20444;-87
2021/04/11 07:44:33;;;;;;;4.20;2.33;;;1.90;99.90;;;;;;5025322;28;20026;-86
2021/04/11 07:47:24;;;;;;;3.80;2.35;;;2.00;99.90;;;;;;5026474;28;20029;-87
2021/04/11 07:49:58;;;;;;;6.38;1.67;;;2.00;99.90;;;;;;5021180;28;20028;-86
2021/04/11 07:52:42;;;;;;;6.57;2.08;;;2.00;99.90;;;;;;5029204;28;20025;-88
2021/04/11 07:55:37;;;;;;;9.52;2.08;;;2.10;99.90;;;;;;5026619;28;20049;-87
2021/04/11 07:58:24;;;;;;;2.25;1.65;;;2.10;99.90;;;;;;5006663;28;20121;-85
2021/04/11 08:01:11;;;;;;;6.82;1.90;;;2.20;99.90;;;;;;4994273;28;20026;-87
2021/04/11 08:04:05;;;;;;;4.13;1.80;;;2.20;99.90;;;;;;4993734;28;20027;-86
2021/04/11 08:07:00;;;;;;;8.60;1.92;;;2.20;99.90;;;;;;4998273;28;20099;-87
2021/04/11 08:09:46;;;;;;;10.05;1.63;;;2.20;99.90;;;;;;5013634;28;20041;-87
2021/04/11 08:12:35;;;;;;;5.10;1.70;;;2.30;99.90;;;;;;5029320;28;20482;-87
2021/04/11 08:17:00;;;;;;;11.35;1.52;;;2.30;99.90;;;;;;5117266;27;20878;-85
2021/04/11 08:19:50;;;;;;;6.07;1.40;;;2.30;99.90;;;;;;5107542;28;20050;-87
2021/04/11 08:22:53;;;;;;;3.30;1.35;;;2.30;99.90;;;;;;5122946;28;20031;-88
2021/04/11 08:25:35;;;;;;;7.97;2.25;;;2.30;99.90;;;;;;5118524;27;20134;-84
2021/04/11 08:28:22;;;;;;;5.35;1.90;;;2.40;99.90;;;;;;5081289;28;20044;-85
2021/04/11 08:31:16;;;;;;;11.07;2.03;;;2.40;99.90;;;;;;5102840;28;20035;-85
2021/04/11 08:34:21;;;;;;;4.53;1.60;;;2.40;99.90;;;;;;5108383;28;20656;-86
2021/04/11 08:37:04;;;;;;;4.10;2.13;;;2.50;99.90;;;;;;5108485;28;20712;-85
2021/04/11 08:39:34;;;;;;;2.88;1.80;;;2.50;99.90;;;;;;5109718;28;20487;-86
2021/04/11 08:42:35;;;;;;;7.50;2.10;;;2.50;99.90;;;;;;5109081;28;20114;-87
2021/04/11 08:45:20;;;;;;;4.80;2.35;;;2.50;99.90;;;;;;5087709;28;20097;-86
2021/04/11 08:48:00;;;;;;;8.70;2.00;;;2.50;99.90;;;;;;5112893;27;20132;-87
2021/04/11 08:50:42;;;;;;;9.63;2.13;;;2.50;99.90;;;;;;5100674;28;20027;-87
2021/04/11 08:53:38;;;;;;;10.63;3.10;;;2.60;99.90;;;;;;5095483;28;20020;-86
2021/04/11 08:56:14;;;;;;;8.27;1.88;;;2.60;99.90;;;;;;5098633;28;20031;-85
2021/04/11 08:59:12;;;;;;;4.95;1.95;;;2.70;99.90;;;;;;5115254;27;20107;-86
2021/04/11 09:02:05;;;;;;;8.82;2.22;;;2.70;99.90;;;;;;5082974;28;20028;-86
2021/04/11 09:04:55;;;;;;;5.67;2.33;;;2.80;99.90;;;;;;5102971;28;20027;-87
2021/04/11 09:07:36;;;;;;;5.85;3.05;;;2.80;99.90;;;;;;5111899;28;20054;-88
2021/04/11 09:10:09;;;;;;;6.43;3.28;;;2.80;99.90;;;;;;5115484;28;20020;-87
2021/04/11 09:13:13;;;;;;;5.10;3.25;;;2.90;99.90;;;;;;5111173;28;20030;-88
2021/04/11 09:16:04;;;;;;;6.45;3.30;;;3.00;99.90;;;;;;5107403;28;20038;-84
2021/04/11 09:18:44;;;;;;;13.25;4.35;;;3.10;99.90;;;;;;5110929;28;20051;-89
2021/04/11 09:21:35;;;;;;;6.45;4.15;;;3.10;99.90;;;;;;5109514;28;20110;-89
2021/04/11 09:24:07;;;;;;;6.20;3.90;;;3.20;99.90;;;;;;5108249;28;20057;-90
2021/04/11 09:26:42;;;;;;;13.23;4.07;;;3.20;99.90;;;;;;5105003;28;20035;-89
2021/04/11 09:29:32;;;;;;;8.23;3.88;;;3.30;99.90;;;;;;5095359;28;20539;-86
2021/04/11 09:32:19;;;;;;;5.85;3.80;;;3.30;99.90;;;;;;5093481;28;20480;-87
2021/04/11 09:34:51;;;;;;;5.40;3.45;;;3.40;99.90;;;;;;5092619;28;20111;-87
2021/04/11 09:38:04;;;;;;;6.13;3.70;;;3.40;99.90;;;;;;5093125;28;20484;-86
2021/04/11 09:40:59;;;;;;;6.60;3.75;;;3.40;99.90;;;;;;5094421;28;20032;-86
2021/04/11 09:43:54;;;;;;;4.13;3.50;;;3.30;99.90;;;;;;5092874;28;20024;-86
2021/04/11 09:46:19;;;;;;;;;;;3.40;99.90;;;;;;5093496;28;20601;-84
2021/04/11 09:49:10;;;;;;;7.10;3.38;;;3.40;99.90;;;;;;5093452;28;19943;-86
2021/04/11 09:52:01;;;;;;;3.38;2.92;;;3.50;99.90;;;;;;5080058;28;20028;-87
2021/04/11 09:54:43;;;;;;;4.32;3.05;;;3.50;99.90;;;;;;5071654;28;20027;-85
2021/04/11 09:57:49;;;;;;;4.05;3.05;;;3.50;99.90;;;;;;5073958;28;20536;-86
2021/04/11 10:00:24;;;;;;;8.18;2.92;;;3.70;99.90;;;;;;5088865;28;20075;-86
2021/04/11 10:03:18;;;;;;;4.15;2.63;;;3.60;99.90;;;;;;5089024;28;20023;-85
2021/04/11 10:06:16;;;;;;;2.88;2.40;;;3.60;99.90;;;;;;5072748;28;20085;-84
2021/04/11 10:09:03;;;;;;;3.45;3.15;;;3.70;99.90;;;;;;5086439;28;20020;-87
2021/04/11 10:11:55;;;;;;;5.60;2.83;;;3.50;99.90;;;;;;5090565;28;20476;-86
2021/04/11 10:14:31;;;;;;;14.63;5.35;;;3.50;99.90;;;;;;5088237;28;20036;-87
2021/04/11 10:17:30;;;;;;;42.13;22.75;;;3.50;99.90;;;;;;5073605;28;20099;-87
2021/04/11 10:20:23;;;;;;;39.42;21.92;;;3.60;99.90;;;;;;5072949;28;20044;-86
2021/04/11 10:23:15;;;;;;;15.50;6.15;;;3.60;99.90;;;;;;5073179;28;20091;-86
2021/04/11 10:25:49;;;;;;;4.18;3.20;;;3.50;99.90;;;;;;5071794;28;20048;-86
2021/04/11 10:28:24;;;;;;;;;;;3.50;99.90;;;;;;5071808;28;20082;-83
2021/04/11 10:31:00;;;;;;;7.60;4.03;;;3.50;99.90;;;;;;5073519;28;19995;-89
2021/04/11 10:33:37;;;;;;;9.95;5.20;;;3.50;99.90;;;;;;5073465;28;20029;-89
2021/04/11 10:36:09;;;;;;;62.80;29.13;;;3.50;99.90;;;;;;5078011;28;20028;-86
2021/04/11 10:38:34;;;;;;;101.88;53.95;;;3.60;99.90;;;;;;5092732;28;20024;-87
2021/04/11 10:41:04;;;;;;;25.42;14.80;;;3.70;99.90;;;;;;5094151;28;20031;-87
2021/04/11 10:43:59;;;;;;;8.85;4.88;;;3.80;99.90;;;;;;5096464;28;20046;-87
2021/04/11 10:46:36;;;;;;;6.20;3.85;;;3.80;99.90;;;;;;5095937;28;20027;-88
2021/04/11 10:49:20;;;;;;;2.55;1.88;;;3.70;99.90;;;;;;5094641;28;20020;-87
2021/04/11 10:52:19;;;;;;;4.82;2.50;;;3.70;99.90;;;;;;5091631;28;20106;-89
2021/04/11 10:54:55;;;;;;;3.30;2.25;;;3.70;99.90;;;;;;5093157;28;20123;-87
2021/04/11 10:58:11;;;;;;;3.90;3.25;;;3.70;99.90;;;;;;5109722;27;20043;-88
2021/04/11 11:01:02;;;;;;;4.53;2.00;;;3.70;99.90;;;;;;5069583;28;20430;-87
2021/04/11 11:03:44;;;;;;;3.10;2.15;;;3.70;99.90;;;;;;5097993;28;20201;-92
2021/04/11 11:06:28;;;;;;;2.70;1.85;;;3.70;99.90;;;;;;5087365;28;20040;-86
2021/04/11 11:08:56;;;;;;;;;;;3.70;99.90;;;;;;5073905;28;20032;-90
2021/04/11 11:11:43;;;;;;;2.65;1.95;;;3.60;99.90;;;;;;5074473;28;19951;-86
2021/04/11 11:14:15;;;;;;;7.80;2.50;;;3.70;99.90;;;;;;5072064;28;20060;-88
2021/04/11 11:17:02;;;;;;;2.42;2.17;;;3.80;99.90;;;;;;5088694;28;20477;-89
2021/04/11 11:19:36;;;;;;;2.10;1.88;;;3.80;99.90;;;;;;5072562;28;20025;-87
2021/04/11 11:22:34;;;;;;;3.50;1.90;;;3.80;99.90;;;;;;5088615;28;20029;-88
2021/04/11 11:25:21;;;;;;;6.93;2.00;;;3.80;99.90;;;;;;5071155;28;20029;-88
2021/04/11 11:28:24;;;;;;;12.40;3.92;;;3.90;99.90;;;;;;5072009;28;20082;-86
2021/04/11 11:30:59;;;;;;;10.20;3.42;;;3.90;99.90;;;;;;5070983;28;20025;-86
2021/04/11 11:33:45;;;;;;;12.80;2.58;;;3.90;99.90;;;;;;5072023;28;20097;-86
2021/04/11 11:36:29;;;;;;;10.13;3.30;;;3.90;99.90;;;;;;5070982;28;20382;-87
2021/04/11 11:39:07;;;;;;;3.42;2.55;;;4.00;99.90;;;;;;5070861;28;20027;-86
2021/04/11 11:41:58;;;;;;;4.22;2.30;;;4.10;99.90;;;;;;5071557;28;20120;-86
2021/04/11 11:44:35;;;;;;;11.57;3.72;;;4.10;99.90;;;;;;5070339;28;20020;-88
2021/04/11 11:47:15;;;;;;;3.58;2.40;;;4.20;99.90;;;;;;5072164;28;20092;-87
2021/04/11 11:49:50;;;;;;;2.83;2.40;;;4.30;99.90;;;;;;5072094;28;20028;-91
2021/04/11 11:52:34;;;;;;;6.40;2.72;;;4.40;99.90;;;;;;5073357;28;20439;-88
2021/04/11 11:55:24;;;;;;;2.65;1.95;;;4.40;99.90;;;;;;5070786;28;20085;-88
2021/04/11 11:58:21;;;;;;;6.28;1.80;;;4.40;99.90;;;;;;5070933;28;20035;-87
2021/04/11 12:01:04;;;;;;;2.97;1.70;;;4.40;99.90;;;;;;5063492;28;20037;-87
2021/04/11 12:03:33;;;;;;;2.30;1.65;;;4.40;99.90;;;;;;5071637;28;20025;-88
2021/04/11 12:06:25;;;;;;;6.55;1.80;;;4.40;99.90;;;;;;5071180;28;20025;-88
2021/04/11 12:09:22;;;;;;;4.35;2.33;;;4.30;99.90;;;;;;5071852;28;20028;-86
2021/04/11 12:12:03;;;;;;;4.85;2.28;;;4.30;99.90;;;;;;5070587;28;20020;-89
2021/04/11 12:14:41;;;;;;;4.05;2.03;;;4.40;99.90;;;;;;5069474;28;20485;-86
2021/04/11 12:17:30;;;;;;;2.38;1.92;;;4.30;99.90;;;;;;5070307;28;20704;-86
2021/04/11 12:20:13;;;;;;;6.22;2.22;;;4.20;99.90;;;;;;5077945;28;20039;-86
2021/04/11 12:23:14;;;;;;;3.63;2.53;;;4.30;99.90;;;;;;5087199;28;20480;-86
2021/04/11 12:25:41;;;;;;;8.80;2.53;;;4.30;99.90;;;;;;5086719;28;20044;-85
2021/04/11 12:28:24;;;;;;;4.95;2.85;;;4.20;99.90;;;;;;5089056;28;20024;-86
2021/04/11 12:30:50;;;;;;;4.22;2.75;;;4.20;99.90;;;;;;5088820;28;20488;-88
2021/04/11 12:33:22;;;;;;;5.32;2.92;;;4.30;99.90;;;;;;5086430;28;20039;-88
2021/04/11 12:36:03;;;;;;;4.55;3.22;;;4.40;99.90;;;;;;5085019;28;20055;-86
2021/04/11 12:38:42;;;;;;;4.43;3.22;;;4.30;99.90;;;;;;5087266;28;20062;-88
2021/04/11 12:41:22;;;;;;;5.30;3.33;;;4.30;99.90;;;;;;5090497;28;20016;-89
2021/04/11 12:44:00;;;;;;;6.35;3.50;;;4.10;99.90;;;;;;5095961;28;20024;-88
2021/04/11 12:46:53;;;;;;;9.27;3.40;;;4.10;99.90;;;;;;5088112;28;20505;-87
2021/04/11 12:49:18;;;;;;;6.90;3.83;;;4.10;99.90;;;;;;5089384;28;20103;-87
2021/04/11 12:51:53;;;;;;;4.65;3.55;;;4.10;99.90;;;;;;5084803;28;20146;-89
2021/04/11 12:54:33;;;;;;;5.53;3.40;;;4.20;99.90;;;;;;5088729;28;20031;-90
2021/04/11 12:57:11;;;;;;;4.05;3.53;;;4.10;99.90;;;;;;5086727;28;20103;-90
2021/04/11 13:00:06;;;;;;;5.30;4.28;;;4.00;99.90;;;;;;5088627;28;20062;-88
2021/04/11 13:02:46;;;;;;;;;;;3.90;99.90;;;;;;5086370;28;20084;-88
2021/04/11 13:05:34;;;;;;;9.20;4.35;;;4.00;99.90;;;;;;5107661;28;19908;-87
2021/04/11 13:08:07;;;;;;;6.05;4.15;;;4.10;99.90;;;;;;5085540;28;20036;-87
2021/04/11 13:10:56;;;;;;;7.65;3.88;;;4.20;99.90;;;;;;5092925;28;20081;-89
2021/04/11 13:13:34;;;;;;;6.07;4.13;;;4.10;99.90;;;;;;5094489;28;20040;-88
2021/04/11 13:16:14;;;;;;;6.93;4.15;;;4.10;99.90;;;;;;5075558;28;20024;-88
2021/04/11 13:18:58;;;;;;;7.03;5.00;;;4.10;99.90;;;;;;5074678;28;20032;-89
2021/04/11 13:21:48;;;;;;;4.20;3.60;;;4.00;99.90;;;;;;5081965;28;20020;-86
2021/04/11 13:24:23;;;;;;;7.07;3.78;;;4.00;99.90;;;;;;5093405;28;20028;-87
2021/04/11 13:26:53;;;;;;;13.75;5.00;;;4.00;99.90;;;;;;5093591;28;20028;-88
2021/04/11 13:29:29;;;;;;;6.22;3.45;;;4.00;99.90;;;;;;5077210;28;20024;-90
2021/04/11 13:32:02;;;;;;;8.07;4.18;;;3.90;99.90;;;;;;5074053;28;20027;-89
2021/04/11 13:34:37;;;;;;;8.65;3.63;;;3.90;99.90;;;;;;5074471;28;20554;-88
2021/04/11 13:37:09;;;;;;;5.72;3.80;;;3.90;99.90;;;;;;5073730;28;20362;-88
2021/04/11 13:39:37;;;;;;;7.35;3.97;;;4.00;99.90;;;;;;5074291;28;20017;-86
2021/04/11 13:42:28;;;;;;;11.10;4.10;;;4.00;99.90;;;;;;5101469;23;20108;-78
2021/04/11 13:45:15;;;;;;;5.85;3.55;;;4.10;99.90;;;;;;4992337;28;20042;-81
2021/04/11 13:47:43;;;;;;;9.23;3.55;;;4.10;99.90;;;;;;5009215;28;20041;-80
2021/04/11 13:50:30;;;;;;;8.93;4.75;;;4.10;99.90;;;;;;4976510;28;20030;-79
2021/04/11 13:53:26;;;;;;;4.72;3.78;;;4.10;99.90;;;;;;4976256;28;20039;-81
2021/04/11 13:55:59;;;;;;;7.40;4.18;;;4.20;99.90;;;;;;4974514;28;20031;-80
2021/04/11 13:58:24;;;;;;;8.23;4.43;;;4.20;99.90;;;;;;4975194;28;20026;-82